Time;durP1;ratioP1;P1;durP2;ratioP2;P2;SDS_P1;SDS_P2;PMS_P1;PMS_P2;Temp;Humidity;BMP_temperature;BMP_pressure;BME280_temperature;BME280_humidity;BME280_pressure;Samples;Min_cycle;Max_cycle;Signal;HPM_P1;HPM_P2
2022/08/13 00:02:09;;;;;;;13.40;12.43;;;;;;;23.21;100.00;127083.94;5112880;28;20194;-64
2022/08/13 00:04:37;;;;;;;12.45;11.75;;;;;;;23.20;100.00;127420.25;5112715;28;20210;-64
2022/08/13 00:07:08;;;;;;;12.27;11.77;;;;;;;23.18;100.00;127078.56;5112866;28;20633;-63
2022/08/13 00:09:38;;;;;;;13.35;12.57;;;;;;;23.22;100.00;130473.28;5112681;28;20187;-63
2022/08/13 00:14:52;;;;;;;12.50;11.95;;;;;;;23.23;100.00;134204.09;5112815;28;20617;-63
2022/08/13 00:17:20;;;;;;;13.80;12.70;;;;;;;23.30;100.00;137950.53;5112850;28;20649;-63
2022/08/13 00:19:50;;;;;;;12.40;11.73;;;;;;;23.29;100.00;136930.94;5112512;28;20183;-62
2022/08/13 00:22:23;;;;;;;12.73;12.02;;;;;;;23.15;100.00;126057.06;5112497;28;20187;-62
2022/08/13 00:24:50;;;;;;;12.43;11.90;;;;;;;23.22;100.00;127087.13;5112521;28;20243;-64
2022/08/13 00:27:17;;;;;;;13.27;12.10;;;;;;;23.05;100.00;125697.59;5112496;28;20194;-63
2022/08/13 00:29:44;;;;;;;12.73;12.07;;;;;;;23.23;100.00;122016.00;5112810;28;20184;-63
2022/08/13 00:32:11;;;;;;;12.98;12.25;;;;;;;23.19;100.00;120994.09;5112751;28;20188;-63
2022/08/13 00:34:38;;;;;;;13.88;12.68;;;;;;;23.16;100.00;120312.38;5112379;28;20183;-63
2022/08/13 00:37:10;;;;;;;12.35;11.73;;;;;;;23.19;100.00;118292.28;5112134;28;20184;-63
2022/08/13 00:39:38;;;;;;;12.98;11.95;;;;;;;23.21;100.00;117282.63;5112264;28;20191;-64
2022/08/13 00:42:06;;;;;;;13.10;12.23;;;;;;;23.14;100.00;117607.25;5112504;28;20648;-64
2022/08/13 00:44:32;;;;;;;13.00;12.10;;;;;;;23.19;100.00;118967.53;5112167;28;20207;-63
2022/08/13 00:49:47;;;;;;;12.32;11.63;;;;;;;23.12;100.00;117603.31;5112401;28;20264;-63
2022/08/13 00:52:14;;;;;;;12.70;11.77;;;;;;;23.14;100.00;112885.41;5112061;28;20188;-63
2022/08/13 00:54:42;;;;;;;13.13;12.25;;;;;;;23.03;100.00;112863.53;5112023;28;20180;-63
2022/08/13 00:57:12;;;;;;;12.52;12.02;;;;;;;23.04;100.00;107142.19;5112262;28;20183;-64
2022/08/13 00:59:39;;;;;;;13.25;12.43;;;;;;;22.81;100.00;110128.78;5112121;28;20190;-64
2022/08/13 01:02:06;;;;;;;13.43;12.52;;;;;;;22.94;100.00;105105.50;5112007;28;20183;-63
2022/08/13 01:04:33;;;;;;;13.70;12.60;;;;;;;22.85;100.00;102738.25;5111904;28;20207;-63
2022/08/13 01:07:04;;;;;;;13.68;12.70;;;;;;;22.93;100.00;100401.19;5112003;28;20176;-64
2022/08/13 01:09:31;;;;;;;13.13;12.13;;;;;;;22.87;100.00;100055.34;5111909;28;20179;-63
2022/08/13 01:12:02;;;;;;;13.23;12.52;;;;;;;22.88;100.00;101734.94;5112072;28;20195;-63
2022/08/13 01:14:32;;;;;;;13.40;12.70;;;;;;;22.94;100.00;100402.91;5111667;28;20265;-63
2022/08/13 01:17:02;;;;;;;13.05;12.05;;;;;;;22.84;100.00;102064.75;5111986;28;20569;-63
2022/08/13 01:19:31;;;;;;;13.30;12.48;;;;;;;22.98;100.00;103432.81;5112285;28;20183;-63
2022/08/13 01:22:00;;;;;;;13.60;12.90;;;;;;;22.79;100.00;102391.97;5112076;28;20274;-63
2022/08/13 01:24:30;;;;;;;14.10;12.80;;;;;;;22.89;100.00;99051.84;5111932;28;20302;-63
2022/08/13 01:26:57;;;;;;;13.02;12.43;;;;;;;22.96;100.00;102421.34;5112196;28;20630;-63
2022/08/13 01:29:25;;;;;;;13.25;12.35;;;;;;;22.97;100.00;103095.03;5111741;28;20259;-63
2022/08/13 01:31:53;;;;;;;13.77;12.68;;;;;;;22.94;100.00;102753.84;5111685;28;20180;-64
2022/08/13 01:34:22;;;;;;;14.10;12.90;;;;;;;22.95;100.00;103427.59;5114573;28;20186;-63
2022/08/13 01:36:50;;;;;;;13.45;12.32;;;;;;;22.91;100.00;104764.94;5115702;28;20223;-64
2022/08/13 01:39:18;;;;;;;13.23;12.35;;;;;;;22.91;100.00;104092.72;5115573;28;20183;-63
2022/08/13 01:41:46;;;;;;;12.98;12.38;;;;;;;22.95;100.00;103427.59;5115560;28;20191;-64
2022/08/13 01:44:14;;;;;;;13.32;12.20;;;;;;;22.90;100.00;102075.09;5115554;28;20242;-62
2022/08/13 01:52:09;;;;;;;13.60;12.20;;;;;;;22.69;100.00;89972.50;5115488;28;20711;-63
2022/08/13 01:54:39;;;;;;;12.70;12.00;;;;;;;22.76;100.00;90652.50;5115389;28;20180;-62
2022/08/13 01:57:08;;;;;;;12.73;11.93;;;;;;;22.58;100.00;89287.47;5115356;28;20561;-63
2022/08/13 01:59:37;;;;;;;14.00;12.98;;;;;;;22.86;100.00;89328.31;5115509;28;20712;-63
2022/08/13 02:02:05;;;;;;;13.23;12.57;;;;;;;22.80;100.00;86977.91;5115252;28;20317;-63
2022/08/13 02:04:33;;;;;;;13.75;12.80;;;;;;;22.70;100.00;84291.16;5115184;28;20207;-64
2022/08/13 02:07:01;;;;;;;13.55;12.52;;;;;;;22.85;100.00;86316.56;5115440;28;20611;-63
2022/08/13 02:09:28;;;;;;;13.27;12.32;;;;;;;22.78;100.00;88647.88;5115402;28;20183;-63
2022/08/13 02:11:56;;;;;;;13.63;12.73;;;;;;;22.70;100.00;85626.94;5115323;28;20205;-63
2022/08/13 02:14:23;;;;;;;13.27;12.52;;;;;;;22.71;100.00;78951.81;5114964;28;20227;-63
2022/08/13 02:16:50;;;;;;;14.52;13.48;;;;;;;22.80;100.00;81632.94;5115774;28;20188;-62
2022/08/13 02:19:17;;;;;;;12.27;11.60;;;;;;;22.87;100.00;86320.25;5115448;28;20549;-64
2022/08/13 02:21:44;;;;;;;13.73;12.70;;;;;;;22.89;100.00;88329.81;5115201;28;20197;-63
2022/08/13 02:24:13;;;;;;;13.50;12.40;;;;;;;22.88;100.00;88662.88;5115258;28;20279;-62
2022/08/13 02:26:43;;;;;;;12.98;12.00;;;;;;;22.89;100.00;85988.81;5115186;28;20626;-63
2022/08/13 02:29:13;;;;;;;13.50;12.70;;;;;;;22.79;100.00;86642.81;5114638;28;20187;-63
2022/08/13 02:31:42;;;;;;;13.05;12.13;;;;;;;22.87;100.00;83646.56;5115152;28;20248;-64
2022/08/13 02:34:10;;;;;;;13.45;12.60;;;;;;;22.79;100.00;79629.09;5114628;28;20190;-64
2022/08/13 02:36:40;;;;;;;13.30;12.45;;;;;;;22.87;100.00;82644.47;5114969;28;20622;-64
2022/08/13 02:39:10;;;;;;;13.48;12.50;;;;;;;22.87;100.00;84648.22;5114830;28;20194;-63
2022/08/13 02:41:40;;;;;;;13.25;12.52;;;;;;;22.91;100.00;85657.44;5114605;28;20180;-63
2022/08/13 02:44:10;;;;;;;14.00;12.82;;;;;;;22.84;100.00;79969.53;5114369;28;20218;-63
2022/08/13 02:46:42;;;;;;;12.77;12.00;;;;;;;22.82;100.00;77965.25;5114760;28;20592;-63
2022/08/13 02:49:12;;;;;;;12.85;12.27;;;;;;;22.64;100.00;73610.50;5114905;28;20595;-63
2022/08/13 02:51:39;;;;;;;13.50;12.73;;;;;;;22.71;100.00;73285.66;5114566;28;20643;-64
2022/08/13 02:54:07;;;;;;;13.93;12.80;;;;;;;22.50;100.00;71595.44;5114380;28;20191;-62
2022/08/13 02:56:36;;;;;;;13.82;12.93;;;;;;;22.69;100.00;69290.34;5114257;28;20183;-64
2022/08/13 02:59:06;;;;;;;14.25;12.85;;;;;;;22.73;100.00;71956.41;5114123;28;20551;-63
2022/08/13 03:01:34;;;;;;;12.73;11.95;;;;;;;22.54;100.00;73597.94;5114005;28;20184;-63
2022/08/13 03:04:03;;;;;;;13.70;12.65;;;;;;;22.74;100.00;72290.53;5113995;28;20183;-63
2022/08/13 03:06:30;;;;;;;13.57;12.93;;;;;;;22.70;100.00;72619.13;5113998;28;20298;-63
2022/08/13 03:09:01;;;;;;;13.73;13.00;;;;;;;22.64;100.00;70614.94;5114110;28;20266;-63
2022/08/13 03:11:29;;;;;;;13.98;12.90;;;;;;;22.55;100.00;65285.34;5114111;28;20554;-63
2022/08/13 03:14:00;;;;;;;13.52;12.30;;;;;;;22.53;100.00;61300.09;5113753;28;20647;-63
2022/08/13 03:16:28;;;;;;;14.05;13.13;;;;;;;22.54;100.00;61301.13;5114096;28;20190;-63
2022/08/13 03:18:57;;;;;;;13.48;12.63;;;;;;;22.41;100.00;58635.72;5113780;28;20192;-63
2022/08/13 03:21:28;;;;;;;12.95;12.35;;;;;;;22.45;100.00;56320.09;5113749;28;20186;-63
2022/08/13 03:23:55;;;;;;;13.88;12.98;;;;;;;22.44;100.00;54333.03;5113775;28;20183;-63
2022/08/13 03:26:24;;;;;;;13.70;12.90;;;;;;;22.56;100.00;53350.78;5114148;28;20228;-63
2022/08/13 03:28:51;;;;;;;14.57;13.57;;;;;;;22.60;100.00;54348.03;5113704;28;20183;-63
2022/08/13 03:31:18;;;;;;;14.15;12.80;;;;;;;22.42;100.00;61951.91;5113748;28;20187;-64
2022/08/13 03:33:46;;;;;;;13.60;12.90;;;;;;;22.57;100.00;65288.16;5113373;28;20191;-63
2022/08/13 03:36:14;;;;;;;14.68;13.85;;;;;;;22.54;100.00;61964.66;5113390;28;20188;-63
2022/08/13 03:38:42;;;;;;;14.70;13.65;;;;;;;22.62;100.00;61973.69;5113283;28;20183;-63
2022/08/13 03:41:12;;;;;;;15.32;14.02;;;;;;;22.54;100.00;62297.00;5113323;28;20187;-64
2022/08/13 03:43:42;;;;;;;13.75;12.88;;;;;;;22.69;100.00;64304.56;5113428;28;20206;-63
2022/08/13 03:46:11;;;;;;;15.85;14.50;;;;;;;22.58;100.00;66949.81;5113054;28;20207;-64
2022/08/13 03:48:38;;;;;;;13.98;13.18;;;;;;;22.83;100.00;76632.16;5113119;28;20194;-63
2022/08/13 03:51:07;;;;;;;13.82;12.98;;;;;;;22.83;100.00;83640.16;5113354;28;20620;-63
2022/08/13 03:53:35;;;;;;;15.80;13.52;;;;;;;22.76;100.00;78290.78;5113205;28;20651;-63
2022/08/13 03:56:04;;;;;;;14.15;13.38;;;;;;;22.84;100.00;79635.84;5112717;28;20599;-64
2022/08/13 03:58:31;;;;;;;14.73;13.35;;;;;;;22.83;100.00;84976.66;5112903;28;20199;-64
2022/08/13 04:00:59;;;;;;;14.52;13.50;;;;;;;23.12;100.00;92717.72;5094766;28;20183;-63
2022/08/13 04:03:28;;;;;;;13.38;12.55;;;;;;;23.41;100.00;107880.59;5113033;28;20198;-63
2022/08/13 04:05:58;;;;;;;13.73;12.95;;;;;;;23.57;100.00;120732.44;5112586;28;20207;-64
2022/08/13 04:08:30;;;;;;;13.77;12.73;;;;;;;23.73;100.00;134314.69;5113034;28;20183;-63
2022/08/13 04:10:58;;;;;;;13.70;12.88;;;;;;;23.92;100.00;150985.44;5113225;28;20564;-64
2022/08/13 04:13:28;;;;;;;14.30;12.98;;;;;;;24.04;100.00;152083.59;5112698;28;20317;-63
2022/08/13 04:15:55;;;;;;;13.75;12.85;;;;;;;24.03;100.00;152082.31;5112816;28;20194;-63
2022/08/13 04:18:22;;;;;;;13.60;12.55;;;;;;;24.14;100.00;152110.38;5112622;28;20194;-63
2022/08/13 04:20:54;;;;;;;13.73;12.98;;;;;;;24.13;100.00;152107.88;5112892;28;20629;-63
2022/08/13 04:23:22;;;;;;;13.35;12.52;;;;;;;24.29;100.00;152146.19;5112592;28;20187;-63
2022/08/13 04:25:50;;;;;;;12.93;12.13;;;;;;;24.34;100.00;152160.25;5112308;28;20203;-64
2022/08/13 04:28:18;;;;;;;13.80;13.05;;;;;;;24.36;100.00;152165.34;5112409;28;20180;-63
2022/08/13 04:30:48;;;;;;;13.57;12.77;;;;;;;24.49;100.00;152197.25;5112345;28;20183;-64
2022/08/13 04:33:17;;;;;;;12.70;12.10;;;;;;;24.68;100.00;152244.53;5112436;28;20218;-63
2022/08/13 04:35:45;;;;;;;13.82;12.60;;;;;;;25.00;100.00;152327.59;5112429;28;20191;-64
2022/08/13 04:38:13;;;;;;;13.25;12.23;;;;;;;25.15;100.00;152363.38;5112282;28;20266;-64
2022/08/13 04:40:42;;;;;;;13.50;12.38;;;;;;;25.53;100.00;152460.53;5112589;28;20626;-63
2022/08/13 04:43:10;;;;;;;12.77;11.82;;;;;;;25.53;100.00;152460.53;5112506;28;20179;-64
2022/08/13 04:45:38;;;;;;;14.40;13.15;;;;;;;25.79;100.00;152525.72;5112085;28;20268;-64
2022/08/13 04:48:09;;;;;;;11.90;11.27;;;;;;;25.94;100.00;152564.03;5112376;28;20558;-63
2022/08/13 04:50:38;;;;;;;13.02;12.27;;;;;;;26.22;100.00;152634.44;5112375;28;20268;-63
2022/08/13 04:53:06;;;;;;;12.77;11.80;;;;;;;26.69;100.00;152754.59;5112388;28;20626;-64
2022/08/13 04:55:35;;;;;;;12.80;12.05;;;;;;;26.90;100.00;152807.09;5112414;28;20550;-64
2022/08/13 04:58:03;;;;;;;12.63;12.00;;;;;;;26.93;100.00;152813.47;5112331;28;20282;-64
2022/08/13 05:00:32;;;;;;;12.43;11.75;;;;;;;27.10;100.00;152858.25;5112355;28;20647;-64
2022/08/13 05:03:10;;;;;;;12.77;11.77;;;;;;;27.17;100.00;152874.88;5112267;28;20653;-65
2022/08/13 05:05:37;;;;;;;12.50;11.68;;;;;;;27.23;100.00;152890.25;5111714;28;20214;-64
2022/08/13 05:08:07;;;;;;;12.90;12.00;;;;;;;27.13;100.00;152865.94;5112628;28;20187;-64
2022/08/13 05:10:37;;;;;;;12.77;11.73;;;;;;;27.01;100.00;152833.94;5116524;28;20622;-64
2022/08/13 05:13:07;;;;;;;12.07;11.57;;;;;;;27.19;100.00;152880.00;5116285;28;20304;-64
2022/08/13 05:15:39;;;;;;;12.60;11.73;;;;;;;27.46;100.00;152949.06;5116506;28;20266;-64
2022/08/13 05:18:06;;;;;;;14.32;13.10;;;;;;;27.56;100.00;152974.72;5116556;28;20195;-64
2022/08/13 05:20:34;;;;;;;12.80;12.07;;;;;;;27.65;100.00;152996.47;5116262;28;20187;-64
2022/08/13 05:23:08;;;;;;;12.95;12.10;;;;;;;28.06;100.00;153100.13;5116340;28;20183;-63
2022/08/13 05:25:35;;;;;;;13.20;12.25;;;;;;;28.73;100.00;153269.25;5115805;28;20218;-64
2022/08/13 05:28:03;;;;;;;12.77;12.07;;;;;;;29.14;100.00;153374.25;5115751;28;20190;-66
2022/08/13 05:30:30;;;;;;;12.50;11.95;;;;;;;28.90;100.00;153314.00;5116082;28;20685;-64
2022/08/13 05:32:57;;;;;;;11.90;11.40;;;;;;;29.16;100.00;153378.03;5116233;28;20183;-63
2022/08/13 05:35:25;;;;;;;13.02;12.07;;;;;;;29.18;100.00;153383.19;5115997;28;20183;-64
2022/08/13 05:37:54;;;;;;;12.23;11.15;;;;;;;29.11;100.00;153365.28;5115797;28;20190;-65
2022/08/13 05:40:21;;;;;;;12.55;11.77;;;;;;;29.56;100.00;153479.31;5115981;28;20229;-63
2022/08/13 05:42:48;;;;;;;12.40;11.55;;;;;;;30.12;100.00;153622.88;5115479;28;20237;-65
2022/08/13 05:45:15;;;;;;;12.10;11.50;;;;;;;31.45;100.00;153958.84;5097787;28;20183;-65
2022/08/13 05:47:43;;;;;;;13.40;12.25;;;;;;;31.71;100.00;154026.88;5115567;28;20180;-64
2022/08/13 05:50:15;;;;;;;11.93;11.43;;;;;;;33.24;100.00;154413.31;5115349;28;20278;-64
2022/08/13 05:52:42;;;;;;;12.60;11.88;;;;;;;33.73;100.00;154539.22;5115467;28;20274;-65
2022/08/13 05:55:13;;;;;;;11.75;10.88;;;;;;;34.40;97.62;154710.09;5115680;28;20187;-64
2022/08/13 05:57:40;;;;;;;12.63;11.75;;;;;;;33.13;100.00;154385.03;5115685;28;20205;-66
2022/08/13 06:05:37;;;;;;;12.60;11.93;;;;;;;34.11;98.19;154635.53;5115445;28;20255;-64
2022/08/13 06:08:05;;;;;;;13.50;11.55;;;;;;;33.73;100.00;154539.22;5115420;28;20189;-64
2022/08/13 06:10:34;;;;;;;11.80;11.20;;;;;;;33.00;100.00;154354.22;5115395;28;20219;-64
2022/08/13 06:13:02;;;;;;;11.90;11.25;;;;;;;32.91;100.00;154331.09;5115125;28;20639;-64
2022/08/13 06:15:30;;;;;;;11.77;11.18;;;;;;;32.96;100.00;154342.66;5115418;28;20237;-65
2022/08/13 06:17:58;;;;;;;12.73;11.77;;;;;;;32.95;100.00;154341.38;5115078;28;20278;-65
2022/08/13 06:20:27;;;;;;;11.23;10.57;;;;;;;33.10;100.00;154378.56;5114913;28;20614;-65
2022/08/13 06:22:57;;;;;;;11.13;10.63;;;;;;;32.94;100.00;154338.78;5115251;28;20191;-65
2022/08/13 06:25:24;;;;;;;11.60;10.75;;;;;;;32.51;100.00;154229.66;5114865;28;20179;-65
2022/08/13 06:27:54;;;;;;;12.68;11.55;;;;;;;32.29;100.00;154171.94;5114805;28;20275;-64
2022/08/13 06:30:25;;;;;;;11.15;10.57;;;;;;;31.89;100.00;154070.50;5114785;28;20184;-66
2022/08/13 06:32:55;;;;;;;11.90;10.80;;;;;;;31.92;100.00;154079.47;5115117;28;20588;-64
2022/08/13 06:35:22;;;;;;;11.57;10.60;;;;;;;31.63;100.00;154006.38;5114893;28;20504;-64
2022/08/13 06:37:49;;;;;;;12.52;11.45;;;;;;;31.52;100.00;153976.81;5114591;28;20183;-64
2022/08/13 06:40:20;;;;;;;11.70;11.05;;;;;;;31.59;100.00;153994.81;5114592;28;20187;-64
2022/08/13 06:42:47;;;;;;;11.90;11.27;;;;;;;31.57;100.00;153989.72;5114877;28;20191;-64
2022/08/13 06:45:16;;;;;;;11.70;10.88;;;;;;;31.57;100.00;153990.94;5114732;28;20259;-64
2022/08/13 06:47:44;;;;;;;10.77;10.32;;;;;;;31.81;100.00;154049.97;5114326;28;20294;-64
2022/08/13 06:50:11;;;;;;;11.52;10.90;;;;;;;31.97;100.00;154092.31;5114736;28;20528;-65
2022/08/13 06:52:41;;;;;;;11.05;10.27;;;;;;;32.31;100.00;154177.03;5114306;28;20194;-64
2022/08/13 06:55:08;;;;;;;11.43;10.63;;;;;;;32.30;100.00;154174.47;5096427;28;20192;-64
2022/08/13 06:57:38;;;;;;;10.80;9.77;;;;;;;32.05;100.00;154112.84;5114437;28;20197;-64
2022/08/13 07:00:09;;;;;;;11.32;10.40;;;;;;;32.11;100.00;154128.31;5114316;28;20187;-65
2022/08/13 07:02:39;;;;;;;11.52;10.82;;;;;;;31.98;100.00;154094.91;5114441;28;20582;-65
2022/08/13 07:05:07;;;;;;;11.23;10.15;;;;;;;32.18;100.00;154146.25;5114298;28;20673;-64
2022/08/13 07:07:34;;;;;;;11.07;10.20;;;;;;;32.44;100.00;154211.69;5114089;28;20200;-64
2022/08/13 07:10:05;;;;;;;11.63;10.10;;;;;;;32.63;100.00;154259.25;5114193;28;20576;-64
2022/08/13 07:12:33;;;;;;;11.00;10.23;;;;;;;32.43;100.00;154207.81;5114108;28;20554;-64
2022/08/13 07:15:00;;;;;;;10.73;10.10;;;;;;;32.72;100.00;154281.06;5113713;28;20227;-64
2022/08/13 07:17:29;;;;;;;11.52;10.52;;;;;;;32.76;100.00;154292.56;5114052;28;20194;-64
2022/08/13 07:19:57;;;;;;;12.32;11.45;;;;;;;32.90;100.00;154327.25;5114192;28;20180;-63
2022/08/13 07:22:24;;;;;;;11.77;10.68;;;;;;;32.66;100.00;154265.66;5114058;28;20648;-64
2022/08/13 07:24:51;;;;;;;12.45;11.63;;;;;;;32.83;100.00;154310.56;5114113;28;20694;-65
2022/08/13 07:27:19;;;;;;;11.65;10.95;;;;;;;32.95;100.00;154340.09;5113801;28;20214;-64
2022/08/13 07:29:49;;;;;;;12.05;11.05;;;;;;;32.92;100.00;154332.41;5113899;28;20194;-64
2022/08/13 07:32:17;;;;;;;11.70;11.05;;;;;;;32.94;100.00;154338.78;5113083;28;20240;-65
2022/08/13 07:34:44;;;;;;;13.02;11.32;;;;;;;32.93;100.00;154334.97;5113718;28;20631;-64
2022/08/13 07:37:20;;;;;;;12.25;11.45;;;;;;;32.89;100.00;154325.94;5113404;28;20190;-64
2022/08/13 07:39:47;;;;;;;12.25;11.40;;;;;;;32.78;100.00;154297.72;5113606;28;20604;-64
2022/08/13 07:42:16;;;;;;;12.50;11.63;;;;;;;32.88;100.00;154322.13;5095496;28;20566;-64
2022/08/13 07:44:43;;;;;;;11.63;10.80;;;;;;;33.01;100.00;154355.50;5113484;28;20236;-64
2022/08/13 07:47:14;;;;;;;11.77;11.27;;;;;;;33.12;100.00;154382.44;5113583;28;20203;-64
2022/08/13 07:49:42;;;;;;;13.50;11.75;;;;;;;32.95;100.00;154340.09;5113580;28;20176;-64
2022/08/13 07:52:09;;;;;;;12.98;11.80;;;;;;;33.11;100.00;154381.16;5113225;28;20188;-64
2022/08/13 07:54:38;;;;;;;11.63;10.90;;;;;;;32.72;100.00;154281.06;5113049;28;20183;-66
2022/08/13 07:57:06;;;;;;;13.55;11.32;;;;;;;32.50;100.00;154225.81;5113222;28;20644;-64
2022/08/13 07:59:32;;;;;;;12.35;11.55;;;;;;;31.48;100.00;153966.56;5113164;28;20257;-64
2022/08/13 08:01:59;;;;;;;12.15;11.10;;;;;;;32.00;100.00;154100.00;5113312;28;20557;-65
2022/08/13 08:04:27;;;;;;;10.93;10.15;;;;;;;32.57;100.00;154243.78;5112810;28;20192;-64
2022/08/13 08:06:55;;;;;;;11.18;10.05;;;;;;;32.88;100.00;154322.13;5112631;28;20236;-64
2022/08/13 08:09:24;;;;;;;10.07;9.57;;;;;;;32.44;100.00;154210.41;5113049;28;20206;-64
2022/08/13 08:14:37;;;;;;;11.18;10.63;;;;;;;31.75;100.00;154035.84;5112727;28;20225;-64
2022/08/13 08:17:08;;;;;;;11.23;10.00;;;;;;;31.05;100.00;153857.56;5094779;28;20189;-65
2022/08/13 08:19:38;;;;;;;11.23;10.23;;;;;;;31.16;100.00;153887.03;5113121;28;20207;-65
2022/08/13 08:22:07;;;;;;;11.52;10.48;;;;;;;31.24;100.00;153906.25;5112846;28;20276;-65
2022/08/13 08:24:34;;;;;;;11.23;10.25;;;;;;;31.01;100.00;153847.31;5112606;28;20187;-65
2022/08/13 08:27:05;;;;;;;10.20;9.60;;;;;;;31.21;100.00;153898.59;5112744;28;20650;-64
2022/08/13 08:29:33;;;;;;;10.10;9.27;;;;;;;31.41;100.00;153948.59;5112663;28;20293;-65
2022/08/13 08:32:00;;;;;;;9.98;9.35;;;;;;;31.34;100.00;153930.66;5112456;28;20191;-65
2022/08/13 08:34:27;;;;;;;10.48;9.88;;;;;;;31.65;100.00;154011.53;5112596;28;20202;-64
2022/08/13 08:36:55;;;;;;;10.95;10.10;;;;;;;31.67;100.00;154015.34;5112799;28;20180;-65
2022/08/13 08:44:57;;;;;;;10.85;9.77;;;;;;;31.79;100.00;154046.13;5098218;28;20199;-64
2022/08/13 08:47:29;;;;;;;10.32;9.55;;;;;;;31.64;100.00;154007.66;5112250;28;20264;-65
2022/08/13 08:49:57;;;;;;;9.75;9.25;;;;;;;31.65;100.00;154010.22;5112283;28;20252;-64
2022/08/13 08:53:19;;;;;;;10.43;9.63;;;;;;;31.86;100.00;154062.81;5112402;28;20183;-64
2022/08/13 08:55:15;;;;;;;11.63;10.70;;;;;;;31.64;100.00;154007.66;5112002;28;20199;-64
2022/08/13 08:57:45;;;;;;;10.55;9.68;;;;;;;31.57;100.00;153989.72;5112424;28;20657;-65
2022/08/13 09:00:15;;;;;;;12.25;10.82;;;;;;;31.55;100.00;153984.56;5112566;28;20179;-64
2022/08/13 09:02:45;;;;;;;11.45;10.40;;;;;;;31.33;100.00;153929.34;5112336;28;20614;-64
2022/08/13 09:05:16;;;;;;;12.27;10.68;;;;;;;30.72;100.00;153774.19;5111937;28;20217;-65
2022/08/13 09:07:46;;;;;;;10.68;9.98;;;;;;;30.28;100.00;153663.88;5112075;28;20214;-64
2022/08/13 09:10:15;;;;;;;11.68;10.60;;;;;;;30.34;100.00;153679.25;5111823;28;20187;-64
2022/08/13 09:12:45;;;;;;;10.90;10.10;;;;;;;30.59;100.00;153742.13;5112486;28;20262;-65
2022/08/13 09:15:13;;;;;;;12.88;11.23;;;;;;;30.59;100.00;153740.84;5112011;28;20179;-65
2022/08/13 09:17:40;;;;;;;11.95;10.43;;;;;;;30.84;100.00;153806.22;5112124;28;20217;-65
2022/08/13 09:20:12;;;;;;;10.80;10.23;;;;;;;31.07;100.00;153863.94;5112135;28;20558;-65
2022/08/13 09:22:41;;;;;;;12.10;10.50;;;;;;;31.48;100.00;153967.84;5112170;28;20535;-64
2022/08/13 09:25:10;;;;;;;10.85;10.07;;;;;;;32.01;100.00;154101.28;5112453;28;20557;-65
2022/08/13 09:27:38;;;;;;;10.88;9.90;;;;;;;32.24;96.11;154160.38;5112128;28;20674;-64
2022/08/13 09:30:07;;;;;;;10.70;10.02;;;;;;;32.87;90.97;154320.84;5112211;28;20748;-65
2022/08/13 09:32:35;;;;;;;10.50;9.75;;;;;;;32.64;86.63;154261.78;5112016;28;20187;-64
2022/08/13 09:35:04;;;;;;;10.70;9.90;;;;;;;32.71;91.56;154279.78;5111889;28;20183;-64
2022/08/13 09:37:32;;;;;;;11.43;10.38;;;;;;;32.34;92.00;154186.00;5112099;28;20207;-64
2022/08/13 09:40:05;;;;;;;10.30;9.70;;;;;;;32.78;92.60;154297.72;5111598;28;20194;-64
2022/08/13 09:42:45;;;;;;;10.85;9.90;;;;;;;33.28;92.31;154424.84;5111969;28;20602;-64
2022/08/13 09:45:14;;;;;;;11.45;9.95;;;;;;;33.34;89.06;154440.28;5111531;28;20187;-64
2022/08/13 09:47:43;;;;;;;10.75;10.05;;;;;;;33.51;88.58;154483.94;5111835;28;20297;-65
2022/08/13 09:50:10;;;;;;;11.30;10.30;;;;;;;32.87;94.68;154319.56;5111572;28;20236;-65
2022/08/13 09:52:38;;;;;;;12.43;11.32;;;;;;;32.37;100.00;154193.75;5111922;28;20647;-65
2022/08/13 09:55:05;;;;;;;13.40;11.60;;;;;;;32.17;100.00;154143.69;5113633;28;20233;-64
2022/08/13 09:57:48;;;;;;;13.10;11.93;;;;;;;31.77;100.00;154041.00;5097566;28;20196;-64
2022/08/13 10:00:22;;;;;;;12.93;11.95;;;;;;;31.55;100.00;153984.56;5115619;28;20652;-65
2022/08/13 10:02:53;;;;;;;12.25;11.52;;;;;;;31.49;100.00;153970.38;5115356;28;20188;-65
2022/08/13 10:05:20;;;;;;;11.93;11.02;;;;;;;31.39;100.00;153943.47;5115520;28;20649;-64
2022/08/13 10:07:47;;;;;;;12.95;11.52;;;;;;;31.20;100.00;153896.00;5115312;28;20243;-64
2022/08/13 10:10:15;;;;;;;12.18;11.18;;;;;;;31.50;100.00;153972.97;5115344;28;20550;-64
2022/08/13 10:12:42;;;;;;;12.05;11.10;;;;;;;31.60;100.00;153997.41;5115437;28;20652;-64
2022/08/13 10:15:11;;;;;;;11.60;10.73;;;;;;;31.58;100.00;153992.25;5115451;28;20573;-65
2022/08/13 10:17:51;;;;;;;11.68;10.90;;;;;;;31.40;100.00;153946.06;5115101;28;20187;-64
2022/08/13 10:20:21;;;;;;;12.73;11.50;;;;;;;31.38;100.00;153940.91;5115151;28;20179;-65
2022/08/13 10:22:50;;;;;;;12.60;11.70;;;;;;;30.77;100.00;153788.25;5115208;28;20538;-64
2022/08/13 10:25:18;;;;;;;12.05;11.00;;;;;;;30.85;100.00;153807.53;5114957;28;20183;-65
2022/08/13 10:27:46;;;;;;;21.70;11.60;;;;;;;30.69;100.00;153766.47;5114703;28;20207;-65
2022/08/13 10:30:14;;;;;;;14.57;11.88;;;;;;;30.79;100.00;153792.13;5114601;28;20219;-64
2022/08/13 10:32:42;;;;;;;12.55;11.45;;;;;;;30.51;100.00;153720.34;5115346;28;20530;-66
2022/08/13 10:35:10;;;;;;;12.07;10.98;;;;;;;30.73;100.00;153778.00;5115045;28;20187;-65
2022/08/13 10:37:44;;;;;;;13.00;11.32;;;;;;;30.93;100.00;153826.75;5114622;28;20180;-64
2022/08/13 10:40:14;;;;;;;12.55;11.27;;;;;;;30.82;100.00;153799.78;5114608;28;20198;-65
2022/08/13 10:42:44;;;;;;;12.25;11.05;;;;;;;30.72;100.00;153774.19;5114853;28;20214;-64
2022/08/13 10:45:12;;;;;;;12.90;11.27;;;;;;;30.73;100.00;153776.72;5114680;28;20271;-65
2022/08/13 10:47:46;;;;;;;12.10;11.25;;;;;;;30.81;100.00;153798.50;5114665;28;20345;-65
2022/08/13 10:50:14;;;;;;;11.88;10.85;;;;;;;30.22;100.00;153648.47;5114664;28;20315;-64
2022/08/13 10:52:42;;;;;;;11.40;10.50;;;;;;;30.29;100.00;153666.47;5114271;28;20195;-65
2022/08/13 10:55:12;;;;;;;12.90;11.88;;;;;;;30.39;100.00;153690.78;5096188;28;20197;-65
2022/08/13 10:57:40;;;;;;;11.27;10.73;;;;;;;30.01;100.00;153594.66;5114561;28;20677;-64
2022/08/13 11:00:09;;;;;;;11.88;10.82;;;;;;;30.24;100.00;153653.63;5114385;28;20207;-65
2022/08/13 11:02:37;;;;;;;12.52;11.10;;;;;;;29.83;100.00;153548.50;5114478;28;20238;-65
2022/08/13 11:05:05;;;;;;;12.70;11.30;;;;;;;29.97;100.00;153584.41;5113812;28;20180;-65
2022/08/13 11:07:34;;;;;;;13.00;12.00;;;;;;;30.06;100.00;153607.47;5112921;28;20210;-64
2022/08/13 11:10:03;;;;;;;13.13;12.07;;;;;;;30.11;100.00;153620.31;5114098;28;20187;-64
2022/08/13 11:12:30;;;;;;;13.50;12.30;;;;;;;30.01;100.00;153593.38;5114010;28;20201;-65
2022/08/13 11:14:57;;;;;;;12.90;11.85;;;;;;;30.18;100.00;153638.25;5113917;28;20755;-65
2022/08/13 11:17:24;;;;;;;11.50;10.90;;;;;;;30.21;100.00;153644.66;5113854;28;20186;-64
2022/08/13 11:19:51;;;;;;;12.38;11.52;;;;;;;29.99;100.00;153588.28;5095906;28;20591;-65
2022/08/13 11:22:19;;;;;;;12.95;11.93;;;;;;;29.91;100.00;153569.06;5114051;28;20187;-64
2022/08/13 11:24:47;;;;;;;12.02;11.38;;;;;;;30.01;100.00;153594.66;5113827;28;20274;-65
2022/08/13 11:27:14;;;;;;;12.95;11.30;;;;;;;29.97;100.00;153584.41;5113713;28;20218;-64
2022/08/13 11:29:41;;;;;;;13.55;12.35;;;;;;;29.69;100.00;153513.91;5113817;28;20202;-65
2022/08/13 11:32:08;;;;;;;13.57;11.82;;;;;;;29.75;100.00;153529.25;5113816;28;20565;-65
2022/08/13 11:34:35;;;;;;;13.50;11.45;;;;;;;29.46;100.00;153454.97;5113559;28;20190;-65
2022/08/13 11:37:02;;;;;;;13.45;12.35;;;;;;;29.52;100.00;153469.06;5113603;28;20187;-64